High Level Airport
CYOJ : now visible

Airfield :











YOU CAN JOIN US ON...

 
LOGIN :

Register | Disclaimer

   EN    FR    IT 

 









Legend :    VFR   Marginal VFR   IFR   Intensive IFR   Very Intensive IFR
Visi :
Ceiling :
>= 8 km
>= 3000ft
5 to 8 km
1000 to 3000 ft
1500m to 5 km
500 to 1000 ft
800 to 1500m
200 to 500 ft
< 800m
< 200 ft
Symbols :   Thunderstorms  Fog  Heavy snow  Heavy precipitations  Wind > 20 kt







- Airport Elevation : 1110 ft
- IATA code : YOJ


CYOJ - High Level

CURRENT METAR :
  • 211000Z AUTO 35002KT 5SM HZ CLR 04/M01 A2991 RMK SLP139

EXPIRED METARs :
  • 210900Z AUTO 33002KT 5SM HZ CLR 05/M01 A2989 RMK SLP132
  • 210800Z AUTO 36003KT 5SM HZ CLR 06/M01 A2987 RMK SLP125

TAF TAF CYOJ
Valid from the 21 at 07:00 until the 21 at 19:00 UTC


210638Z 2107/2119 16005KT 6SM FU FEW012 SCT260
TEMPO 2107/2115 21/2SM FU HZ FEW008
FM211500 11003KT P6SM SKC
TEMPO 2115/2119 5SM FU FEW012 RMK FCST BASED ON AUTO OBS. NXT FCST BY 211300Z
CZEG FIR / North America



MET'MAP, your aeronautical weather chart ! - Copyright ORBIFLY December 2007 - Disclaimer

ORBIFLY MET'MAP TEAM :

Programming & Development : Alexandra Zaïnal
Concept & Development : Baudouin d'Aumeries
Co-Development & Prog : Marc-Olivier Méhu
Technical & hardware support : Manuel Goepfert

Contact : metmap@orbifly.com




SOURCES & CREDITS :

   NOAA       Earth
Advisory